sensor_id;sensor_type;location;lat;lon;timestamp;temperature;humidity
12845;DHT22;68700;48.534;9.196;2023-07-30T00:00:55;18.10;1.00
12845;DHT22;68700;48.534;9.196;2023-07-30T00:04:17;18.00;1.40
12845;DHT22;68700;48.534;9.196;2023-07-30T00:07:38;18.00;1.40
12845;DHT22;68700;48.534;9.196;2023-07-30T00:11:00;18.00;1.00
12845;DHT22;68700;48.534;9.196;2023-07-30T00:14:23;18.00;1.40
12845;DHT22;68700;48.534;9.196;2023-07-30T00:17:45;18.00;1.40
12845;DHT22;68700;48.534;9.196;2023-07-30T00:21:07;18.00;1.00
12845;DHT22;68700;48.534;9.196;2023-07-30T00:24:29;18.00;1.00
12845;DHT22;68700;48.534;9.196;2023-07-30T00:27:51;18.10;1.00
12845;DHT22;68700;48.534;9.196;2023-07-30T00:31:14;18.00;1.00
12845;DHT22;68700;48.534;9.196;2023-07-30T00:34:35;18.00;1.00
12845;DHT22;68700;48.534;9.196;2023-07-30T00:37:57;18.00;1.00
12845;DHT22;68700;48.534;9.196;2023-07-30T00:41:19;18.00;1.00
12845;DHT22;68700;48.534;9.196;2023-07-30T00:44:41;17.90;1.00
12845;DHT22;68700;48.534;9.196;2023-07-30T00:48:04;17.90;1.00
12845;DHT22;68700;48.534;9.196;2023-07-30T00:51:26;17.90;1.00
12845;DHT22;68700;48.534;9.196;2023-07-30T00:54:49;17.90;99.90
12845;DHT22;68700;48.534;9.196;2023-07-30T00:58:11;17.80;99.90
12845;DHT22;68700;48.534;9.196;2023-07-30T01:01:36;17.90;99.90
12845;DHT22;68700;48.534;9.196;2023-07-30T01:05:01;18.00;99.90
12845;DHT22;68700;48.534;9.196;2023-07-30T01:08:24;18.00;99.90
12845;DHT22;68700;48.534;9.196;2023-07-30T01:11:46;18.10;99.90
12845;DHT22;68700;48.534;9.196;2023-07-30T01:15:09;18.10;99.90
12845;DHT22;68700;48.534;9.196;2023-07-30T01:18:31;18.20;99.90
12845;DHT22;68700;48.534;9.196;2023-07-30T01:21:54;18.20;99.90
12845;DHT22;68700;48.534;9.196;2023-07-30T01:25:17;18.10;99.90
12845;DHT22;68700;48.534;9.196;2023-07-30T01:28:43;18.20;99.90
12845;DHT22;68700;48.534;9.196;2023-07-30T01:32:09;18.20;99.90
12845;DHT22;68700;48.534;9.196;2023-07-30T01:35:32;18.20;99.90
12845;DHT22;68700;48.534;9.196;2023-07-30T01:38:56;18.20;99.90
12845;DHT22;68700;48.534;9.196;2023-07-30T01:42:18;18.10;99.90
12845;DHT22;68700;48.534;9.196;2023-07-30T01:45:40;18.20;99.90
12845;DHT22;68700;48.534;9.196;2023-07-30T01:49:02;18.10;99.90
12845;DHT22;68700;48.534;9.196;2023-07-30T01:52:25;18.00;99.90
12845;DHT22;68700;48.534;9.196;2023-07-30T01:55:48;17.90;99.90
12845;DHT22;68700;48.534;9.196;2023-07-30T01:59:10;17.80;99.90
12845;DHT22;68700;48.534;9.196;2023-07-30T02:02:31;17.70;99.90
12845;DHT22;68700;48.534;9.196;2023-07-30T02:05:55;17.70;99.90
12845;DHT22;68700;48.534;9.196;2023-07-30T02:09:17;17.60;99.90
12845;DHT22;68700;48.534;9.196;2023-07-30T02:12:40;17.60;99.90
12845;DHT22;68700;48.534;9.196;2023-07-30T02:16:02;17.50;99.90
12845;DHT22;68700;48.534;9.196;2023-07-30T02:19:24;17.50;99.90
12845;DHT22;68700;48.534;9.196;2023-07-30T02:22:46;17.30;99.90
12845;DHT22;68700;48.534;9.196;2023-07-30T02:26:08;17.30;99.90
12845;DHT22;68700;48.534;9.196;2023-07-30T02:29:31;17.20;99.90
12845;DHT22;68700;48.534;9.196;2023-07-30T02:32:53;17.20;99.90
12845;DHT22;68700;48.534;9.196;2023-07-30T02:36:15;17.10;99.90
12845;DHT22;68700;48.534;9.196;2023-07-30T02:39:37;17.10;99.90
12845;DHT22;68700;48.534;9.196;2023-07-30T02:42:59;17.10;99.90
12845;DHT22;68700;48.534;9.196;2023-07-30T02:46:22;17.10;99.90
12845;DHT22;68700;48.534;9.196;2023-07-30T02:49:44;17.10;99.90
12845;DHT22;68700;48.534;9.196;2023-07-30T02:53:06;17.10;99.90
12845;DHT22;68700;48.534;9.196;2023-07-30T02:56:27;17.10;99.90
12845;DHT22;68700;48.534;9.196;2023-07-30T02:59:49;17.00;99.90
12845;DHT22;68700;48.534;9.196;2023-07-30T03:03:12;17.00;99.90
12845;DHT22;68700;48.534;9.196;2023-07-30T03:06:34;16.90;99.90
12845;DHT22;68700;48.534;9.196;2023-07-30T03:09:56;16.90;99.90
12845;DHT22;68700;48.534;9.196;2023-07-30T03:13:18;16.90;99.90
12845;DHT22;68700;48.534;9.196;2023-07-30T03:16:40;16.80;99.90
12845;DHT22;68700;48.534;9.196;2023-07-30T03:20:03;16.80;99.90
12845;DHT22;68700;48.534;9.196;2023-07-30T03:23:25;16.80;99.90
12845;DHT22;68700;48.534;9.196;2023-07-30T03:26:47;16.80;99.90
12845;DHT22;68700;48.534;9.196;2023-07-30T03:30:10;16.80;99.90
12845;DHT22;68700;48.534;9.196;2023-07-30T03:33:32;16.80;99.90
12845;DHT22;68700;48.534;9.196;2023-07-30T03:36:56;16.80;99.90
12845;DHT22;68700;48.534;9.196;2023-07-30T03:40:18;16.80;99.90
12845;DHT22;68700;48.534;9.196;2023-07-30T03:43:40;16.90;99.90
12845;DHT22;68700;48.534;9.196;2023-07-30T03:47:02;16.80;99.90
12845;DHT22;68700;48.534;9.196;2023-07-30T03:50:23;16.80;99.90
12845;DHT22;68700;48.534;9.196;2023-07-30T03:53:47;16.70;99.90
12845;DHT22;68700;48.534;9.196;2023-07-30T03:57:08;16.70;99.90
12845;DHT22;68700;48.534;9.196;2023-07-30T04:00:30;16.80;99.90
12845;DHT22;68700;48.534;9.196;2023-07-30T04:03:52;16.80;99.90
12845;DHT22;68700;48.534;9.196;2023-07-30T04:07:14;16.80;99.90
12845;DHT22;68700;48.534;9.196;2023-07-30T04:10:37;16.90;99.90
12845;DHT22;68700;48.534;9.196;2023-07-30T04:13:59;16.90;99.90
12845;DHT22;68700;48.534;9.196;2023-07-30T04:17:20;17.00;99.90
12845;DHT22;68700;48.534;9.196;2023-07-30T04:20:42;17.00;99.90
12845;DHT22;68700;48.534;9.196;2023-07-30T04:24:04;17.00;99.90
12845;DHT22;68700;48.534;9.196;2023-07-30T04:27:27;17.00;99.90
12845;DHT22;68700;48.534;9.196;2023-07-30T04:30:49;17.10;99.90
12845;DHT22;68700;48.534;9.196;2023-07-30T04:34:11;17.20;99.90
12845;DHT22;68700;48.534;9.196;2023-07-30T04:37:34;17.20;99.90
12845;DHT22;68700;48.534;9.196;2023-07-30T04:40:57;17.30;99.90
12845;DHT22;68700;48.534;9.196;2023-07-30T04:44:20;17.30;99.90
12845;DHT22;68700;48.534;9.196;2023-07-30T04:47:42;17.40;99.90
12845;DHT22;68700;48.534;9.196;2023-07-30T04:51:04;17.40;99.90
12845;DHT22;68700;48.534;9.196;2023-07-30T04:54:26;17.40;99.90
12845;DHT22;68700;48.534;9.196;2023-07-30T04:57:48;17.50;99.90
12845;DHT22;68700;48.534;9.196;2023-07-30T05:01:11;17.50;99.90
12845;DHT22;68700;48.534;9.196;2023-07-30T05:04:33;17.50;99.90
12845;DHT22;68700;48.534;9.196;2023-07-30T05:07:54;17.50;99.90
12845;DHT22;68700;48.534;9.196;2023-07-30T05:11:16;17.60;99.90
12845;DHT22;68700;48.534;9.196;2023-07-30T05:14:38;17.70;99.90
12845;DHT22;68700;48.534;9.196;2023-07-30T05:18:01;17.80;99.90
12845;DHT22;68700;48.534;9.196;2023-07-30T05:21:23;17.90;99.90
12845;DHT22;68700;48.534;9.196;2023-07-30T05:24:45;18.00;99.90
12845;DHT22;68700;48.534;9.196;2023-07-30T05:28:06;18.20;99.90
12845;DHT22;68700;48.534;9.196;2023-07-30T05:31:28;18.20;99.90
12845;DHT22;68700;48.534;9.196;2023-07-30T05:34:52;18.30;99.90
12845;DHT22;68700;48.534;9.196;2023-07-30T05:38:13;18.40;99.90
12845;DHT22;68700;48.534;9.196;2023-07-30T05:41:35;18.50;99.90
12845;DHT22;68700;48.534;9.196;2023-07-30T05:44:57;18.60;99.90
12845;DHT22;68700;48.534;9.196;2023-07-30T05:48:19;18.60;99.90
12845;DHT22;68700;48.534;9.196;2023-07-30T05:51:42;18.60;99.90
12845;DHT22;68700;48.534;9.196;2023-07-30T05:55:04;18.60;99.90
12845;DHT22;68700;48.534;9.196;2023-07-30T05:58:26;18.80;99.90
12845;DHT22;68700;48.534;9.196;2023-07-30T06:01:48;19.00;99.90
12845;DHT22;68700;48.534;9.196;2023-07-30T06:05:10;19.30;99.90
12845;DHT22;68700;48.534;9.196;2023-07-30T06:08:33;19.30;99.90
12845;DHT22;68700;48.534;9.196;2023-07-30T06:11:56;19.50;99.90
12845;DHT22;68700;48.534;9.196;2023-07-30T06:15:18;19.80;99.90
12845;DHT22;68700;48.534;9.196;2023-07-30T06:18:40;19.60;99.90
12845;DHT22;68700;48.534;9.196;2023-07-30T06:22:02;19.40;99.90
12845;DHT22;68700;48.534;9.196;2023-07-30T06:25:25;19.30;99.90
12845;DHT22;68700;48.534;9.196;2023-07-30T06:28:47;19.10;99.90
12845;DHT22;68700;48.534;9.196;2023-07-30T06:32:09;19.40;99.90
12845;DHT22;68700;48.534;9.196;2023-07-30T06:35:31;19.80;99.90
12845;DHT22;68700;48.534;9.196;2023-07-30T06:38:53;20.20;99.90
12845;DHT22;68700;48.534;9.196;2023-07-30T06:42:16;20.50;99.90
12845;DHT22;68700;48.534;9.196;2023-07-30T06:45:37;20.50;99.90
12845;DHT22;68700;48.534;9.196;2023-07-30T06:48:59;20.10;99.90
12845;DHT22;68700;48.534;9.196;2023-07-30T06:52:21;20.10;99.90
12845;DHT22;68700;48.534;9.196;2023-07-30T06:55:43;20.40;99.90
12845;DHT22;68700;48.534;9.196;2023-07-30T06:59:06;20.80;99.90
12845;DHT22;68700;48.534;9.196;2023-07-30T07:02:28;21.50;99.90
12845;DHT22;68700;48.534;9.196;2023-07-30T07:05:53;22.20;1.00
12845;DHT22;68700;48.534;9.196;2023-07-30T07:09:15;22.10;1.00
12845;DHT22;68700;48.534;9.196;2023-07-30T07:12:38;21.50;1.00
12845;DHT22;68700;48.534;9.196;2023-07-30T07:16:01;21.50;17.40
12845;DHT22;68700;48.534;9.196;2023-07-30T07:19:24;21.20;1.00
12845;DHT22;68700;48.534;9.196;2023-07-30T07:22:46;21.00;39.80
12845;DHT22;68700;48.534;9.196;2023-07-30T07:26:07;21.10;35.60
12845;DHT22;68700;48.534;9.196;2023-07-30T07:29:29;21.20;43.20
12845;DHT22;68700;48.534;9.196;2023-07-30T07:32:53;21.10;30.50
12845;DHT22;68700;48.534;9.196;2023-07-30T07:36:16;21.10;57.70
12845;DHT22;68700;48.534;9.196;2023-07-30T07:39:37;21.20;63.30
12845;DHT22;68700;48.534;9.196;2023-07-30T07:43:23;21.10;88.80
12845;DHT22;68700;48.534;9.196;2023-07-30T07:46:45;20.20;99.90
12845;DHT22;68700;48.534;9.196;2023-07-30T07:50:09;19.30;99.90
12845;DHT22;68700;48.534;9.196;2023-07-30T07:53:31;18.80;99.90
12845;DHT22;68700;48.534;9.196;2023-07-30T07:56:53;18.60;99.90
12845;DHT22;68700;48.534;9.196;2023-07-30T08:00:14;18.60;99.90
12845;DHT22;68700;48.534;9.196;2023-07-30T08:03:36;18.90;99.90
12845;DHT22;68700;48.534;9.196;2023-07-30T08:06:59;19.10;99.90
12845;DHT22;68700;48.534;9.196;2023-07-30T08:10:23;19.30;99.90
12845;DHT22;68700;48.534;9.196;2023-07-30T08:13:45;19.60;99.90
12845;DHT22;68700;48.534;9.196;2023-07-30T08:17:07;20.10;99.90
12845;DHT22;68700;48.534;9.196;2023-07-30T08:20:29;20.60;99.90
12845;DHT22;68700;48.534;9.196;2023-07-30T08:23:53;21.60;70.30
12845;DHT22;68700;48.534;9.196;2023-07-30T08:27:14;22.30;1.00
12845;DHT22;68700;48.534;9.196;2023-07-30T08:30:36;22.10;1.00
12845;DHT22;68700;48.534;9.196;2023-07-30T08:33:58;22.80;1.00
12845;DHT22;68700;48.534;9.196;2023-07-30T08:37:20;23.00;1.00
12845;DHT22;68700;48.534;9.196;2023-07-30T08:40:43;23.50;1.00
12845;DHT22;68700;48.534;9.196;2023-07-30T08:44:05;23.70;1.00
12845;DHT22;68700;48.534;9.196;2023-07-30T08:47:27;23.20;1.00
12845;DHT22;68700;48.534;9.196;2023-07-30T08:50:50;23.30;1.00
12845;DHT22;68700;48.534;9.196;2023-07-30T08:54:12;23.50;1.00
12845;DHT22;68700;48.534;9.196;2023-07-30T08:57:37;23.70;1.00
12845;DHT22;68700;48.534;9.196;2023-07-30T09:01:01;23.20;1.00
12845;DHT22;68700;48.534;9.196;2023-07-30T09:04:29;24.00;1.00
12845;DHT22;68700;48.534;9.196;2023-07-30T09:07:51;24.60;1.00
12845;DHT22;68700;48.534;9.196;2023-07-30T09:11:13;23.80;1.00
12845;DHT22;68700;48.534;9.196;2023-07-30T09:14:36;24.00;1.00
12845;DHT22;68700;48.534;9.196;2023-07-30T09:17:58;23.20;1.00
12845;DHT22;68700;48.534;9.196;2023-07-30T09:21:29;23.40;1.00
12845;DHT22;68700;48.534;9.196;2023-07-30T09:24:51;22.90;1.00
12845;DHT22;68700;48.534;9.196;2023-07-30T09:28:13;22.50;1.00
12845;DHT22;68700;48.534;9.196;2023-07-30T09:31:46;22.40;1.00
12845;DHT22;68700;48.534;9.196;2023-07-30T09:35:10;22.00;1.00
12845;DHT22;68700;48.534;9.196;2023-07-30T09:38:32;21.10;1.00
12845;DHT22;68700;48.534;9.196;2023-07-30T09:42:00;20.50;15.30
12845;DHT22;68700;48.534;9.196;2023-07-30T09:45:24;20.30;46.40
12845;DHT22;68700;48.534;9.196;2023-07-30T09:48:47;20.40;99.90
12845;DHT22;68700;48.534;9.196;2023-07-30T09:52:10;20.30;56.30
12845;DHT22;68700;48.534;9.196;2023-07-30T09:55:33;20.40;1.00
12845;DHT22;68700;48.534;9.196;2023-07-30T09:58:55;20.60;1.00
12845;DHT22;68700;48.534;9.196;2023-07-30T10:02:18;20.60;1.00
12845;DHT22;68700;48.534;9.196;2023-07-30T10:05:41;21.10;1.00
12845;DHT22;68700;48.534;9.196;2023-07-30T10:09:05;21.80;1.00
12845;DHT22;68700;48.534;9.196;2023-07-30T10:12:32;22.10;1.00
12845;DHT22;68700;48.534;9.196;2023-07-30T10:15:55;22.30;1.00
12845;DHT22;68700;48.534;9.196;2023-07-30T10:19:22;21.90;1.00
12845;DHT22;68700;48.534;9.196;2023-07-30T10:22:46;21.70;1.00
12845;DHT22;68700;48.534;9.196;2023-07-30T10:26:11;21.90;1.00
12845;DHT22;68700;48.534;9.196;2023-07-30T10:29:34;22.00;1.00
12845;DHT22;68700;48.534;9.196;2023-07-30T10:33:01;21.70;1.00
12845;DHT22;68700;48.534;9.196;2023-07-30T10:36:32;22.10;1.00
12845;DHT22;68700;48.534;9.196;2023-07-30T10:39:55;22.10;1.00
12845;DHT22;68700;48.534;9.196;2023-07-30T10:43:17;22.30;1.00
12845;DHT22;68700;48.534;9.196;2023-07-30T10:46:39;22.30;1.00
12845;DHT22;68700;48.534;9.196;2023-07-30T10:50:01;22.40;1.00
12845;DHT22;68700;48.534;9.196;2023-07-30T10:53:23;22.60;1.00
12845;DHT22;68700;48.534;9.196;2023-07-30T10:56:47;23.10;1.00
12845;DHT22;68700;48.534;9.196;2023-07-30T11:00:09;23.20;1.00
12845;DHT22;68700;48.534;9.196;2023-07-30T11:03:32;24.20;1.00
12845;DHT22;68700;48.534;9.196;2023-07-30T11:06:54;24.00;1.00
12845;DHT22;68700;48.534;9.196;2023-07-30T11:10:16;23.40;1.00
12845;DHT22;68700;48.534;9.196;2023-07-30T11:13:41;23.60;1.00
12845;DHT22;68700;48.534;9.196;2023-07-30T11:17:03;23.80;1.00
12845;DHT22;68700;48.534;9.196;2023-07-30T11:20:25;25.20;1.00
12845;DHT22;68700;48.534;9.196;2023-07-30T11:23:50;25.20;1.00
12845;DHT22;68700;48.534;9.196;2023-07-30T11:27:12;24.40;1.00
12845;DHT22;68700;48.534;9.196;2023-07-30T11:30:36;25.00;1.00
12845;DHT22;68700;48.534;9.196;2023-07-30T11:33:58;26.50;1.00
12845;DHT22;68700;48.534;9.196;2023-07-30T11:37:21;25.60;1.00
12845;DHT22;68700;48.534;9.196;2023-07-30T11:40:43;27.00;1.00
12845;DHT22;68700;48.534;9.196;2023-07-30T11:44:05;27.20;1.00
12845;DHT22;68700;48.534;9.196;2023-07-30T11:47:28;27.50;1.00
12845;DHT22;68700;48.534;9.196;2023-07-30T11:50:51;26.90;1.00
12845;DHT22;68700;48.534;9.196;2023-07-30T11:54:19;27.50;1.00
12845;DHT22;68700;48.534;9.196;2023-07-30T11:57:41;27.40;1.00
12845;DHT22;68700;48.534;9.196;2023-07-30T12:01:03;27.60;1.00
12845;DHT22;68700;48.534;9.196;2023-07-30T12:04:42;27.60;1.00
12845;DHT22;68700;48.534;9.196;2023-07-30T12:08:06;25.80;1.00
12845;DHT22;68700;48.534;9.196;2023-07-30T12:11:29;25.50;1.00
12845;DHT22;68700;48.534;9.196;2023-07-30T12:14:53;25.30;1.00
12845;DHT22;68700;48.534;9.196;2023-07-30T12:18:15;26.70;1.00
12845;DHT22;68700;48.534;9.196;2023-07-30T12:21:38;27.00;1.00
12845;DHT22;68700;48.534;9.196;2023-07-30T12:25:01;26.70;1.00
12845;DHT22;68700;48.534;9.196;2023-07-30T12:28:24;26.90;1.00
12845;DHT22;68700;48.534;9.196;2023-07-30T12:31:46;26.00;1.00
12845;DHT22;68700;48.534;9.196;2023-07-30T12:35:08;27.50;1.00
12845;DHT22;68700;48.534;9.196;2023-07-30T12:38:31;27.50;1.00
12845;DHT22;68700;48.534;9.196;2023-07-30T12:41:53;28.30;1.00
12845;DHT22;68700;48.534;9.196;2023-07-30T12:45:14;29.50;1.00
12845;DHT22;68700;48.534;9.196;2023-07-30T12:48:36;28.10;99.90
12845;DHT22;68700;48.534;9.196;2023-07-30T12:51:58;26.40;99.90
12845;DHT22;68700;48.534;9.196;2023-07-30T12:55:21;25.50;99.90
12845;DHT22;68700;48.534;9.196;2023-07-30T12:58:43;24.80;1.00
12845;DHT22;68700;48.534;9.196;2023-07-30T13:02:05;24.30;1.00
12845;DHT22;68700;48.534;9.196;2023-07-30T13:05:27;24.80;1.00
12845;DHT22;68700;48.534;9.196;2023-07-30T13:08:49;24.90;1.00
12845;DHT22;68700;48.534;9.196;2023-07-30T13:12:12;24.80;1.00
12845;DHT22;68700;48.534;9.196;2023-07-30T13:15:34;24.80;1.00
12845;DHT22;68700;48.534;9.196;2023-07-30T13:18:56;24.90;1.00
12845;DHT22;68700;48.534;9.196;2023-07-30T13:22:18;24.80;1.00
12845;DHT22;68700;48.534;9.196;2023-07-30T13:25:39;25.30;1.00
12845;DHT22;68700;48.534;9.196;2023-07-30T13:29:03;25.00;1.00
12845;DHT22;68700;48.534;9.196;2023-07-30T13:32:24;24.70;1.00
12845;DHT22;68700;48.534;9.196;2023-07-30T13:35:46;25.20;1.00
12845;DHT22;68700;48.534;9.196;2023-07-30T13:39:08;25.70;1.00
12845;DHT22;68700;48.534;9.196;2023-07-30T13:42:30;24.30;1.00
12845;DHT22;68700;48.534;9.196;2023-07-30T13:45:53;24.40;1.00
12845;DHT22;68700;48.534;9.196;2023-07-30T13:49:15;25.00;1.00
12845;DHT22;68700;48.534;9.196;2023-07-30T13:52:36;25.10;1.00
12845;DHT22;68700;48.534;9.196;2023-07-30T13:55:58;25.50;1.00
12845;DHT22;68700;48.534;9.196;2023-07-30T13:59:22;26.30;1.00
12845;DHT22;68700;48.534;9.196;2023-07-30T14:02:45;26.10;1.00
12845;DHT22;68700;48.534;9.196;2023-07-30T14:06:06;27.10;1.00
12845;DHT22;68700;48.534;9.196;2023-07-30T14:09:28;26.40;1.00
12845;DHT22;68700;48.534;9.196;2023-07-30T14:12:53;27.70;1.00
12845;DHT22;68700;48.534;9.196;2023-07-30T14:16:34;28.20;1.00
12845;DHT22;68700;48.534;9.196;2023-07-30T14:19:57;27.80;1.00
12845;DHT22;68700;48.534;9.196;2023-07-30T14:23:19;27.70;1.00
12845;DHT22;68700;48.534;9.196;2023-07-30T14:26:41;27.30;1.00
12845;DHT22;68700;48.534;9.196;2023-07-30T14:30:03;26.40;99.90
12845;DHT22;68700;48.534;9.196;2023-07-30T14:33:25;26.00;99.90
12845;DHT22;68700;48.534;9.196;2023-07-30T14:36:49;26.10;1.00
12845;DHT22;68700;48.534;9.196;2023-07-30T14:40:11;26.30;99.90
12845;DHT22;68700;48.534;9.196;2023-07-30T14:43:33;25.80;1.40
12845;DHT22;68700;48.534;9.196;2023-07-30T14:46:54;25.00;1.00
12845;DHT22;68700;48.534;9.196;2023-07-30T14:50:17;24.90;1.40
12845;DHT22;68700;48.534;9.196;2023-07-30T14:53:40;25.10;1.00
12845;DHT22;68700;48.534;9.196;2023-07-30T14:57:02;25.20;1.00
12845;DHT22;68700;48.534;9.196;2023-07-30T15:00:24;26.70;99.90
12845;DHT22;68700;48.534;9.196;2023-07-30T15:03:46;26.00;99.90
12845;DHT22;68700;48.534;9.196;2023-07-30T15:07:08;24.90;99.90
12845;DHT22;68700;48.534;9.196;2023-07-30T15:10:32;25.30;99.90
12845;DHT22;68700;48.534;9.196;2023-07-30T15:13:53;24.30;1.00
12845;DHT22;68700;48.534;9.196;2023-07-30T15:17:15;24.50;1.00
12845;DHT22;68700;48.534;9.196;2023-07-30T15:20:37;24.70;1.00
12845;DHT22;68700;48.534;9.196;2023-07-30T15:23:59;24.20;99.90
12845;DHT22;68700;48.534;9.196;2023-07-30T15:27:22;24.30;99.90
12845;DHT22;68700;48.534;9.196;2023-07-30T15:30:44;25.20;99.90
12845;DHT22;68700;48.534;9.196;2023-07-30T15:34:06;25.00;99.90
12845;DHT22;68700;48.534;9.196;2023-07-30T15:37:28;25.20;99.90
12845;DHT22;68700;48.534;9.196;2023-07-30T15:40:50;25.10;99.90
12845;DHT22;68700;48.534;9.196;2023-07-30T15:44:13;25.80;99.90
12845;DHT22;68700;48.534;9.196;2023-07-30T15:47:35;25.80;99.90
12845;DHT22;68700;48.534;9.196;2023-07-30T15:51:00;26.20;99.90
12845;DHT22;68700;48.534;9.196;2023-07-30T15:54:32;24.70;99.90
12845;DHT22;68700;48.534;9.196;2023-07-30T15:57:54;25.80;99.90
12845;DHT22;68700;48.534;9.196;2023-07-30T16:01:18;25.60;99.90
12845;DHT22;68700;48.534;9.196;2023-07-30T16:04:39;25.50;99.90
12845;DHT22;68700;48.534;9.196;2023-07-30T16:08:01;25.10;99.90
12845;DHT22;68700;48.534;9.196;2023-07-30T16:11:23;24.90;99.90
12845;DHT22;68700;48.534;9.196;2023-07-30T16:14:51;25.40;99.90
12845;DHT22;68700;48.534;9.196;2023-07-30T16:18:15;25.40;99.90
12845;DHT22;68700;48.534;9.196;2023-07-30T16:21:37;25.00;99.90
12845;DHT22;68700;48.534;9.196;2023-07-30T16:24:59;24.50;99.90
12845;DHT22;68700;48.534;9.196;2023-07-30T16:28:21;24.10;99.90
12845;DHT22;68700;48.534;9.196;2023-07-30T16:31:42;23.60;99.90
12845;DHT22;68700;48.534;9.196;2023-07-30T16:35:06;22.80;99.90
12845;DHT22;68700;48.534;9.196;2023-07-30T16:38:28;23.20;99.90
12845;DHT22;68700;48.534;9.196;2023-07-30T16:41:50;23.50;99.90
12845;DHT22;68700;48.534;9.196;2023-07-30T16:45:12;23.00;99.90
12845;DHT22;68700;48.534;9.196;2023-07-30T16:48:34;22.60;99.90
12845;DHT22;68700;48.534;9.196;2023-07-30T16:51:57;22.30;99.90
12845;DHT22;68700;48.534;9.196;2023-07-30T16:55:20;22.40;99.90
12845;DHT22;68700;48.534;9.196;2023-07-30T16:58:42;22.10;99.90
12845;DHT22;68700;48.534;9.196;2023-07-30T17:02:04;22.10;99.90
12845;DHT22;68700;48.534;9.196;2023-07-30T17:05:26;22.00;99.90
12845;DHT22;68700;48.534;9.196;2023-07-30T17:08:50;22.00;99.90
12845;DHT22;68700;48.534;9.196;2023-07-30T17:12:11;22.00;99.90
12845;DHT22;68700;48.534;9.196;2023-07-30T17:15:36;22.00;99.90
12845;DHT22;68700;48.534;9.196;2023-07-30T17:18:58;22.00;99.90
12845;DHT22;68700;48.534;9.196;2023-07-30T17:22:20;21.90;99.90
12845;DHT22;68700;48.534;9.196;2023-07-30T17:25:51;21.80;99.90
12845;DHT22;68700;48.534;9.196;2023-07-30T17:29:13;21.80;99.90
12845;DHT22;68700;48.534;9.196;2023-07-30T17:32:35;21.40;99.90
12845;DHT22;68700;48.534;9.196;2023-07-30T17:36:00;21.40;99.90
12845;DHT22;68700;48.534;9.196;2023-07-30T17:39:22;21.20;99.90
12845;DHT22;68700;48.534;9.196;2023-07-30T17:42:46;21.20;99.90
12845;DHT22;68700;48.534;9.196;2023-07-30T17:46:08;21.20;99.90
12845;DHT22;68700;48.534;9.196;2023-07-30T17:49:29;21.00;99.90
12845;DHT22;68700;48.534;9.196;2023-07-30T17:52:51;21.00;99.90
12845;DHT22;68700;48.534;9.196;2023-07-30T17:56:13;21.00;99.90
12845;DHT22;68700;48.534;9.196;2023-07-30T17:59:36;21.00;99.90
12845;DHT22;68700;48.534;9.196;2023-07-30T18:02:58;20.70;99.90
12845;DHT22;68700;48.534;9.196;2023-07-30T18:06:20;20.50;99.90
12845;DHT22;68700;48.534;9.196;2023-07-30T18:09:42;20.40;99.90
12845;DHT22;68700;48.534;9.196;2023-07-30T18:13:25;20.20;99.90
12845;DHT22;68700;48.534;9.196;2023-07-30T18:16:48;20.10;99.90
12845;DHT22;68700;48.534;9.196;2023-07-30T18:20:11;20.10;99.90
12845;DHT22;68700;48.534;9.196;2023-07-30T18:23:32;20.00;99.90
12845;DHT22;68700;48.534;9.196;2023-07-30T18:26:54;19.90;99.90
12845;DHT22;68700;48.534;9.196;2023-07-30T18:30:16;19.80;99.90
12845;DHT22;68700;48.534;9.196;2023-07-30T18:33:39;19.70;99.90
12845;DHT22;68700;48.534;9.196;2023-07-30T18:37:01;19.70;99.90
12845;DHT22;68700;48.534;9.196;2023-07-30T18:40:23;19.70;99.90
12845;DHT22;68700;48.534;9.196;2023-07-30T18:43:45;19.60;1.00
12845;DHT22;68700;48.534;9.196;2023-07-30T18:47:07;19.50;1.00
12845;DHT22;68700;48.534;9.196;2023-07-30T18:50:30;19.40;1.00
12845;DHT22;68700;48.534;9.196;2023-07-30T18:53:53;19.30;1.00
12845;DHT22;68700;48.534;9.196;2023-07-30T18:57:15;19.20;1.00
12845;DHT22;68700;48.534;9.196;2023-07-30T19:00:36;19.20;1.00
12845;DHT22;68700;48.534;9.196;2023-07-30T19:03:58;19.00;1.00
12845;DHT22;68700;48.534;9.196;2023-07-30T19:07:21;18.90;1.00
12845;DHT22;68700;48.534;9.196;2023-07-30T19:10:45;18.80;1.00
12845;DHT22;68700;48.534;9.196;2023-07-30T19:14:07;18.70;1.00
12845;DHT22;68700;48.534;9.196;2023-07-30T19:17:29;18.60;1.00
12845;DHT22;68700;48.534;9.196;2023-07-30T19:20:51;18.60;1.00
12845;DHT22;68700;48.534;9.196;2023-07-30T19:24:14;18.50;1.00
12845;DHT22;68700;48.534;9.196;2023-07-30T19:27:36;18.50;1.00
12845;DHT22;68700;48.534;9.196;2023-07-30T19:31:03;18.40;1.00
12845;DHT22;68700;48.534;9.196;2023-07-30T19:34:25;18.40;1.00
12845;DHT22;68700;48.534;9.196;2023-07-30T19:37:47;18.30;1.00
12845;DHT22;68700;48.534;9.196;2023-07-30T19:41:10;18.30;1.00
12845;DHT22;68700;48.534;9.196;2023-07-30T19:44:32;18.20;1.00
12845;DHT22;68700;48.534;9.196;2023-07-30T19:47:54;18.10;1.00
12845;DHT22;68700;48.534;9.196;2023-07-30T19:51:15;18.10;1.00
12845;DHT22;68700;48.534;9.196;2023-07-30T19:54:37;18.00;1.00
12845;DHT22;68700;48.534;9.196;2023-07-30T19:58:01;17.90;1.00
12845;DHT22;68700;48.534;9.196;2023-07-30T20:01:22;17.80;1.00
12845;DHT22;68700;48.534;9.196;2023-07-30T20:04:44;17.70;1.00
12845;DHT22;68700;48.534;9.196;2023-07-30T20:08:06;17.70;1.00
12845;DHT22;68700;48.534;9.196;2023-07-30T20:11:28;17.50;1.00
12845;DHT22;68700;48.534;9.196;2023-07-30T20:14:54;17.40;1.00
12845;DHT22;68700;48.534;9.196;2023-07-30T20:18:16;17.30;1.00
12845;DHT22;68700;48.534;9.196;2023-07-30T20:21:38;17.30;1.00
12845;DHT22;68700;48.534;9.196;2023-07-30T20:25:02;17.20;1.00
12845;DHT22;68700;48.534;9.196;2023-07-30T20:28:24;17.10;1.00
12845;DHT22;68700;48.534;9.196;2023-07-30T20:31:47;17.20;1.00
12845;DHT22;68700;48.534;9.196;2023-07-30T20:35:09;17.10;1.00
12845;DHT22;68700;48.534;9.196;2023-07-30T20:38:31;17.00;1.00
12845;DHT22;68700;48.534;9.196;2023-07-30T20:41:53;17.00;1.00
12845;DHT22;68700;48.534;9.196;2023-07-30T20:45:15;17.00;1.00
12845;DHT22;68700;48.534;9.196;2023-07-30T20:48:39;16.90;1.00
12845;DHT22;68700;48.534;9.196;2023-07-30T20:52:02;16.80;1.00
12845;DHT22;68700;48.534;9.196;2023-07-30T20:55:24;16.70;1.00
12845;DHT22;68700;48.534;9.196;2023-07-30T20:58:47;16.60;1.00
12845;DHT22;68700;48.534;9.196;2023-07-30T21:02:08;16.50;1.00
12845;DHT22;68700;48.534;9.196;2023-07-30T21:05:32;16.50;1.00
12845;DHT22;68700;48.534;9.196;2023-07-30T21:08:54;16.30;1.00
12845;DHT22;68700;48.534;9.196;2023-07-30T21:12:16;16.20;1.00
12845;DHT22;68700;48.534;9.196;2023-07-30T21:15:38;16.10;1.00
12845;DHT22;68700;48.534;9.196;2023-07-30T21:18:59;16.00;1.00
12845;DHT22;68700;48.534;9.196;2023-07-30T21:22:22;15.90;1.00
12845;DHT22;68700;48.534;9.196;2023-07-30T21:25:44;15.80;1.00
12845;DHT22;68700;48.534;9.196;2023-07-30T21:29:06;15.80;1.00